createdAt,value
2018-10-07T00:00:32.587Z,94960.50
2018-10-07T00:03:00.998Z,94959.19
2018-10-07T00:05:29.429Z,94949.20
2018-10-07T00:07:57.826Z,94955.42
2018-10-07T00:10:26.282Z,94952.94
2018-10-07T00:12:54.673Z,94957.52
2018-10-07T00:15:23.159Z,94954.91
2018-10-07T00:17:51.533Z,94953.10
2018-10-07T00:20:23.272Z,94955.06
2018-10-07T00:22:51.703Z,94950.16
2018-10-07T00:25:20.172Z,94947.84
2018-10-07T00:27:48.626Z,94942.58
2018-10-07T00:30:17.031Z,94943.70
2018-10-07T00:32:45.543Z,94951.41
2018-10-07T00:35:13.981Z,94941.28
2018-10-07T00:37:42.487Z,94939.99
2018-10-07T00:40:10.917Z,94937.38
2018-10-07T00:42:39.974Z,94936.73
2018-10-07T00:45:08.499Z,94936.73
2018-10-07T00:47:36.986Z,94938.53
2018-10-07T00:50:05.461Z,94942.16
2018-10-07T00:52:33.973Z,94939.70
2018-10-07T00:55:02.562Z,94941.95
2018-10-07T00:57:31.057Z,94937.03
2018-10-07T00:59:59.539Z,94936.05
2018-10-07T01:02:28.038Z,94931.45
2018-10-07T01:04:56.459Z,94930.14
2018-10-07T01:07:24.935Z,94930.68
2018-10-07T01:09:53.333Z,94933.14
2018-10-07T01:12:21.801Z,94936.11
2018-10-07T01:14:50.235Z,94932.21
2018-10-07T01:17:18.722Z,94931.38
2018-10-07T01:19:47.197Z,94930.36
2018-10-07T01:22:15.661Z,94928.24
2018-10-07T01:24:44.065Z,94930.69
2018-10-07T01:27:12.606Z,94921.69
2018-10-07T01:29:41.033Z,94930.02
2018-10-07T01:32:09.562Z,94929.07
2018-10-07T01:34:38.041Z,94926.11
2018-10-07T01:37:06.489Z,94933.33
2018-10-07T01:39:34.970Z,94939.39
2018-10-07T01:42:03.722Z,94933.33
2018-10-07T01:44:32.153Z,94936.97
2018-10-07T01:47:00.546Z,94937.63
2018-10-07T01:49:28.985Z,94931.25
2018-10-07T01:51:57.385Z,94939.13
2018-10-07T01:54:25.834Z,94942.72
2018-10-07T01:56:54.247Z,94945.84
2018-10-07T01:59:22.742Z,94947.80
2018-10-07T02:01:51.126Z,94940.60
2018-10-07T02:04:19.557Z,94942.08
2018-10-07T02:06:47.968Z,94946.00
2018-10-07T02:09:16.459Z,94945.17
2018-10-07T02:11:44.891Z,94948.61
2018-10-07T02:14:13.334Z,94944.34
2018-10-07T02:16:41.798Z,94945.13
2018-10-07T02:19:10.217Z,94944.47
2018-10-07T02:21:38.678Z,94950.02
2018-10-07T02:24:07.341Z,94944.44
2018-10-07T02:26:35.782Z,94952.47
2018-10-07T02:29:04.214Z,94952.51
2018-10-07T02:31:32.716Z,94949.88
2018-10-07T02:34:01.145Z,94949.41
2018-10-07T02:36:29.590Z,94947.45
2018-10-07T02:38:58.007Z,94954.68
2018-10-07T02:41:26.470Z,94960.39
2018-10-07T02:43:54.889Z,94953.83
2018-10-07T02:46:23.365Z,94959.05
2018-10-07T02:48:51.830Z,94958.23
2018-10-07T02:51:20.362Z,94954.00
2018-10-07T02:53:48.802Z,94961.05
2018-10-07T02:56:17.305Z,94954.16
2018-10-07T02:58:45.742Z,94954.98
2018-10-07T03:01:14.191Z,94950.07
2018-10-07T03:03:42.626Z,94956.96
2018-10-07T03:06:11.086Z,94951.38
2018-10-07T03:08:39.497Z,94961.72
2018-10-07T03:11:07.994Z,94956.62
2018-10-07T03:13:36.482Z,94963.66
2018-10-07T03:16:04.909Z,94959.27
2018-10-07T03:18:33.342Z,94961.05
2018-10-07T03:21:01.784Z,94959.92
2018-10-07T03:23:30.281Z,94962.06
2018-10-07T03:25:58.698Z,94960.42
2018-10-07T03:28:27.133Z,94968.75
2018-10-07T03:30:55.579Z,94968.12
2018-10-07T03:33:24.011Z,94971.22
2018-10-07T03:35:52.442Z,94970.39
2018-10-07T03:38:20.866Z,94972.20
2018-10-07T03:40:49.263Z,94970.73
2018-10-07T03:43:17.704Z,94962.72
2018-10-07T03:45:46.473Z,94959.45
2018-10-07T03:48:14.898Z,94963.21
2018-10-07T03:50:43.285Z,94966.11
2018-10-07T03:53:11.739Z,94964.66
2018-10-07T03:55:40.255Z,94971.35
2018-10-07T03:58:08.870Z,94974.34
2018-10-07T04:00:37.289Z,94981.05
2018-10-07T04:03:05.745Z,94978.58
2018-10-07T04:05:34.190Z,94977.43
2018-10-07T04:08:02.970Z,94979.70
2018-10-07T04:10:31.413Z,94979.86
2018-10-07T04:12:59.813Z,94975.77
2018-10-07T04:15:28.273Z,94986.74
2018-10-07T04:17:56.668Z,94984.95
2018-10-07T04:20:25.102Z,94987.26
2018-10-07T04:22:53.499Z,94994.60
2018-10-07T04:25:21.944Z,94990.38
2018-10-07T04:27:50.365Z,94987.75
2018-10-07T04:30:18.809Z,94997.23
2018-10-07T04:32:47.213Z,94997.23
2018-10-07T04:35:15.658Z,95001.65
2018-10-07T04:37:44.051Z,95006.41
2018-10-07T04:40:12.494Z,95008.19
2018-10-07T04:42:40.933Z,95010.47
2018-10-07T04:45:09.369Z,95006.38
2018-10-07T04:47:37.778Z,95003.61
2018-10-07T04:50:06.378Z,95007.19
2018-10-07T04:52:34.846Z,95012.94
2018-10-07T04:55:03.625Z,95010.00
2018-10-07T04:57:32.050Z,95013.91
2018-10-07T05:00:00.458Z,95006.88
2018-10-07T05:02:28.906Z,95012.91
2018-10-07T05:04:57.393Z,95011.12
2018-10-07T05:07:25.897Z,95018.01
2018-10-07T05:10:05.518Z,95014.73
2018-10-07T05:12:34.098Z,95024.55
2018-10-07T05:15:02.943Z,95026.34
2018-10-07T05:17:32.685Z,95026.34
2018-10-07T05:20:01.390Z,95023.90
2018-10-07T05:22:30.330Z,95031.24
2018-10-07T05:24:59.170Z,95039.44
2018-10-07T05:27:28.023Z,95035.34
2018-10-07T05:29:56.852Z,95037.95
2018-10-07T05:32:25.634Z,95033.72
2018-10-07T05:34:54.382Z,95040.43
2018-10-07T05:37:23.161Z,95043.36
2018-10-07T05:39:51.935Z,95048.31
2018-10-07T05:42:20.439Z,95051.75
2018-10-07T05:44:49.373Z,95043.23
2018-10-07T05:47:18.095Z,95049.30
2018-10-07T05:49:47.027Z,95048.96
2018-10-07T05:52:15.592Z,95053.38
2018-10-07T05:54:44.460Z,95052.88
2018-10-07T05:57:13.096Z,95059.60
2018-10-07T05:59:41.898Z,95056.67
2018-10-07T06:02:10.601Z,95060.26
2018-10-07T06:04:59.332Z,95060.58
2018-10-07T06:07:29.278Z,95066.50
2018-10-07T06:09:58.155Z,95064.34
2018-10-07T06:12:27.146Z,95074.67
2018-10-07T06:15:06.924Z,95073.19
2018-10-07T06:17:35.434Z,95078.59
2018-10-07T06:20:04.043Z,95088.44
2018-10-07T06:22:32.571Z,95088.27
2018-10-07T06:25:01.131Z,95094.65
2018-10-07T06:27:30.394Z,95089.23
2018-10-07T06:29:59.042Z,95101.20
2018-10-07T06:32:27.614Z,95098.89
2018-10-07T06:34:56.315Z,95102.34
2018-10-07T06:37:24.789Z,95105.13
2018-10-07T06:39:54.215Z,95105.61
2018-10-07T06:42:22.771Z,95110.19
2018-10-07T06:44:51.331Z,95117.73
2018-10-07T06:47:19.869Z,95115.11
2018-10-07T06:49:48.298Z,95118.70
2018-10-07T06:52:16.767Z,95120.50
2018-10-07T06:54:45.238Z,95138.52
2018-10-07T06:57:13.672Z,95141.97
2018-10-07T06:59:42.216Z,95132.45
2018-10-07T07:02:10.651Z,95137.39
2018-10-07T07:04:39.230Z,95141.31
2018-10-07T07:07:07.811Z,95134.11
2018-10-07T07:09:36.241Z,95142.45
2018-10-07T07:12:04.677Z,95150.80
2018-10-07T07:14:33.105Z,95146.07
2018-10-07T07:17:02.004Z,95145.73
2018-10-07T07:19:30.397Z,95149.83
2018-10-07T07:21:58.823Z,95157.55
2018-10-07T07:24:27.257Z,95156.89
2018-10-07T07:26:55.713Z,95158.67
2018-10-07T07:29:24.121Z,95165.88
2018-10-07T07:31:52.628Z,95168.67
2018-10-07T07:34:21.043Z,95170.66
2018-10-07T07:36:49.567Z,95178.35
2018-10-07T07:39:17.914Z,95175.91
2018-10-07T07:41:46.350Z,95181.28
2018-10-07T07:44:14.768Z,95184.06
2018-10-07T07:46:43.188Z,95189.47
2018-10-07T07:49:11.669Z,95191.77
2018-10-07T07:51:40.090Z,95187.34
2018-10-07T07:54:08.477Z,95189.63
2018-10-07T07:56:36.922Z,95195.23
2018-10-07T07:59:05.730Z,95197.20
2018-10-07T08:01:34.157Z,95208.19
2018-10-07T08:04:02.927Z,95211.28
2018-10-07T08:06:31.383Z,95201.44
2018-10-07T08:08:59.838Z,95209.81
2018-10-07T08:11:28.285Z,95205.86
2018-10-07T08:13:56.715Z,95216.66
2018-10-07T08:16:25.175Z,95217.47
2018-10-07T08:18:54.309Z,95221.08
2018-10-07T08:21:22.701Z,95217.95
2018-10-07T08:23:51.210Z,95218.28
2018-10-07T08:26:19.565Z,95220.24
2018-10-07T08:28:48.014Z,95217.78
2018-10-07T08:31:16.434Z,95218.41
2018-10-07T08:33:44.850Z,95223.98
2018-10-07T08:36:13.243Z,95221.20
2018-10-07T08:38:41.713Z,95219.40
2018-10-07T08:41:10.121Z,95228.28
2018-10-07T08:43:38.565Z,95222.02
2018-10-07T08:46:06.998Z,95223.52
2018-10-07T08:48:35.414Z,95221.05
2018-10-07T08:51:03.849Z,95222.19
2018-10-07T08:53:32.298Z,95223.82
2018-10-07T08:56:00.721Z,95227.09
2018-10-07T08:58:29.129Z,95229.90
2018-10-07T09:00:57.598Z,95225.28
2018-10-07T09:03:25.991Z,95230.55
2018-10-07T09:05:54.425Z,95232.15
2018-10-07T09:08:22.814Z,95227.04
2018-10-07T09:10:51.294Z,95232.79
2018-10-07T09:13:20.202Z,95239.67
2018-10-07T09:15:48.682Z,95241.95
2018-10-07T09:18:17.074Z,95234.55
2018-10-07T09:20:45.576Z,95241.87
2018-10-07T09:23:13.973Z,95240.06
2018-10-07T09:25:42.505Z,95246.48
2018-10-07T09:28:10.955Z,95250.91
2018-10-07T09:30:39.423Z,95253.39
2018-10-07T09:33:07.822Z,95256.14
2018-10-07T09:35:36.252Z,95254.67
2018-10-07T09:38:04.673Z,95257.44
2018-10-07T09:40:33.141Z,95261.05
2018-10-07T09:43:01.797Z,95266.30
2018-10-07T09:45:30.293Z,95257.59
2018-10-07T09:47:58.770Z,95257.44
2018-10-07T09:50:27.173Z,95251.84
2018-10-07T09:52:55.598Z,95251.17
2018-10-07T09:55:24.023Z,95253.59
2018-10-07T09:57:52.549Z,95251.09
2018-10-07T10:00:51.865Z,95251.56
2018-10-07T10:03:20.258Z,95251.16
2018-10-07T10:05:48.678Z,95246.05
2018-10-07T10:08:17.120Z,95246.88
2018-10-07T10:10:45.537Z,95242.63
2018-10-07T10:13:14.373Z,95253.09
2018-10-07T10:15:42.806Z,95253.73
2018-10-07T10:18:16.573Z,95260.42
2018-10-07T10:20:56.970Z,95261.44
2018-10-07T10:23:36.358Z,95263.52
2018-10-07T10:26:11.962Z,95264.98
2018-10-07T10:28:48.618Z,95262.27
2018-10-07T10:31:26.217Z,95264.68
2018-10-07T10:35:09.846Z,95268.70
2018-10-07T10:37:49.325Z,95275.99
2018-10-07T10:40:31.214Z,95273.17
2018-10-07T10:43:43.717Z,95275.73
2018-10-07T10:46:21.809Z,95275.05
2018-10-07T10:49:26.195Z,95284.64
2018-10-07T10:52:29.573Z,95281.59
2018-10-07T10:55:14.156Z,95282.33
2018-10-07T10:57:44.411Z,95282.09
2018-10-07T11:00:16.574Z,95283.80
2018-10-07T11:04:58.722Z,95287.06
2018-10-07T11:07:51.614Z,95283.65
2018-10-07T11:10:26.859Z,95282.92
2018-10-07T11:13:05.039Z,95287.66
2018-10-07T11:15:38.545Z,95282.69
2018-10-07T11:18:19.965Z,95285.56
2018-10-07T11:23:02.378Z,95275.96
2018-10-07T11:26:56.386Z,95279.36
2018-10-07T11:29:52.470Z,95279.64
2018-10-07T11:32:33.390Z,95281.59
2018-10-07T11:35:16.186Z,95282.02
2018-10-07T11:38:04.450Z,95283.44
2018-10-07T11:40:44.193Z,95282.55
2018-10-07T11:43:20.410Z,95282.59
2018-10-07T11:47:02.060Z,95281.97
2018-10-07T11:49:45.226Z,95282.53
2018-10-07T11:52:50.928Z,95285.68
2018-10-07T11:55:19.361Z,95285.19
2018-10-07T11:57:47.778Z,95285.41
2018-10-07T12:00:16.369Z,95291.08
2018-10-07T12:02:44.831Z,95289.07
2018-10-07T12:05:13.233Z,95281.25
2018-10-07T12:07:42.214Z,95280.89
2018-10-07T12:10:10.724Z,95282.07
2018-10-07T12:12:39.137Z,95281.96
2018-10-07T12:15:10.966Z,95281.96
2018-10-07T12:17:39.959Z,95278.94
2018-10-07T12:20:08.405Z,95286.85
2018-10-07T12:22:36.859Z,95286.80
2018-10-07T12:25:05.555Z,95287.70
2018-10-07T12:27:33.977Z,95287.00
2018-10-07T12:30:02.397Z,95281.53
2018-10-07T12:32:30.849Z,95287.00
2018-10-07T12:34:59.267Z,95293.04
2018-10-07T12:37:27.778Z,95296.11
2018-10-07T12:39:56.198Z,95297.82
2018-10-07T12:42:24.619Z,95294.72
2018-10-07T12:44:53.066Z,95304.88
2018-10-07T12:47:21.560Z,95305.72
2018-10-07T12:49:49.958Z,95306.69
2018-10-07T12:52:18.382Z,95299.47
2018-10-07T12:54:46.810Z,95303.42
2018-10-07T12:57:15.198Z,95306.33
2018-10-07T12:59:43.625Z,95308.78
2018-10-07T13:02:12.056Z,95310.09
2018-10-07T13:04:40.485Z,95308.45
2018-10-07T13:07:08.914Z,95312.38
2018-10-07T13:09:38.640Z,95313.50
2018-10-07T13:12:07.053Z,95314.83
2018-10-07T13:14:35.554Z,95314.47
2018-10-07T13:17:04.026Z,95324.63
2018-10-07T13:19:32.466Z,95322.33
2018-10-07T13:22:00.901Z,95320.07
2018-10-07T13:24:29.337Z,95318.70
2018-10-07T13:26:57.757Z,95317.67
2018-10-07T13:29:26.206Z,95320.53
2018-10-07T13:31:54.614Z,95320.11
2018-10-07T13:34:23.134Z,95325.33
2018-10-07T13:36:51.554Z,95326.52
2018-10-07T13:39:19.986Z,95328.92
2018-10-07T13:41:48.389Z,95333.12
2018-10-07T13:44:16.839Z,95331.73
2018-10-07T13:46:45.241Z,95333.05
2018-10-07T13:49:13.641Z,95335.56
2018-10-07T13:51:42.122Z,95339.71
2018-10-07T13:54:10.534Z,95340.63
2018-10-07T13:56:39.042Z,95340.69
2018-10-07T13:59:07.519Z,95343.27
2018-10-07T14:01:35.937Z,95343.20
2018-10-07T14:04:04.342Z,95348.89
2018-10-07T14:06:32.787Z,95341.78
2018-10-07T14:09:01.937Z,95349.84
2018-10-07T14:11:30.422Z,95346.91
2018-10-07T14:13:58.815Z,95341.45
2018-10-07T14:16:27.322Z,95343.75
2018-10-07T14:18:55.872Z,95346.10
2018-10-07T14:21:24.294Z,95349.58
2018-10-07T14:23:52.773Z,95345.09
2018-10-07T14:26:21.209Z,95341.42
2018-10-07T14:28:49.673Z,95345.02
2018-10-07T14:31:18.113Z,95351.42
2018-10-07T14:33:46.549Z,95347.66
2018-10-07T14:36:14.956Z,95349.81
2018-10-07T14:38:43.625Z,95348.69
2018-10-07T14:41:12.030Z,95346.59
2018-10-07T14:43:40.478Z,95340.24
2018-10-07T14:46:08.894Z,95341.91
2018-10-07T14:48:37.314Z,95347.91
2018-10-07T14:51:05.778Z,95350.11
2018-10-07T14:53:34.394Z,95352.30
2018-10-07T14:56:02.921Z,95349.02
2018-10-07T14:58:31.322Z,95354.68
2018-10-07T15:00:59.844Z,95355.37
2018-10-07T15:03:28.222Z,95351.66
2018-10-07T15:05:56.733Z,95357.86
2018-10-07T15:08:25.165Z,95355.79
2018-10-07T15:10:53.603Z,95361.44
2018-10-07T15:13:22.047Z,95357.53
2018-10-07T15:15:50.522Z,95359.52
2018-10-07T15:18:18.930Z,95366.97
2018-10-07T15:20:47.389Z,95363.51
2018-10-07T15:23:15.866Z,95376.48
2018-10-07T15:25:44.405Z,95371.22
2018-10-07T15:28:12.797Z,95372.02
2018-10-07T15:30:41.229Z,95373.36
2018-10-07T15:33:09.653Z,95372.54
2018-10-07T15:35:38.129Z,95370.84
2018-10-07T15:38:06.543Z,95374.95
2018-10-07T15:40:35.030Z,95370.69
2018-10-07T15:43:03.434Z,95376.75
2018-10-07T15:45:31.973Z,95375.84
2018-10-07T15:48:00.406Z,95377.20
2018-10-07T15:50:28.810Z,95374.66
2018-10-07T15:52:57.250Z,95376.01
2018-10-07T15:55:25.658Z,95383.78
2018-10-07T15:57:54.074Z,95382.19
2018-10-07T16:00:22.514Z,95390.75
2018-10-07T16:02:50.936Z,95391.78
2018-10-07T16:05:19.365Z,95398.86
2018-10-07T16:07:47.785Z,95401.48
2018-10-07T16:10:16.197Z,95400.20
2018-10-07T16:12:44.613Z,95402.36
2018-10-07T16:15:13.090Z,95408.31
2018-10-07T16:17:42.671Z,95414.88
2018-10-07T16:20:11.086Z,95408.30
2018-10-07T16:22:39.506Z,95413.41
2018-10-07T16:25:07.966Z,95420.95
2018-10-07T16:27:36.378Z,95431.98
2018-10-07T16:30:05.190Z,95432.98
2018-10-07T16:32:33.610Z,95441.22
2018-10-07T16:35:02.031Z,95446.80
2018-10-07T16:37:30.458Z,95445.18
2018-10-07T16:39:58.850Z,95450.11
2018-10-07T16:42:27.270Z,95449.95
2018-10-07T16:44:55.667Z,95459.81
2018-10-07T16:47:24.094Z,95459.97
2018-10-07T16:49:52.506Z,95464.42
2018-10-07T16:52:24.282Z,95460.80
2018-10-07T16:54:52.745Z,95463.44
2018-10-07T16:57:21.134Z,95470.98
2018-10-07T16:59:49.569Z,95470.34
2018-10-07T17:02:17.987Z,95468.38
2018-10-07T17:04:46.421Z,95470.02
2018-10-07T17:07:14.834Z,95471.84
2018-10-07T17:09:43.254Z,95468.72
2018-10-07T17:12:11.645Z,95473.16
2018-10-07T17:14:40.112Z,95474.95
2018-10-07T17:17:08.579Z,95472.98
2018-10-07T17:19:37.010Z,95480.05
2018-10-07T17:22:05.440Z,95486.44
2018-10-07T17:24:33.902Z,95488.75
2018-10-07T17:27:02.899Z,95486.78
2018-10-07T17:29:33.338Z,95489.24
2018-10-07T17:32:02.067Z,95486.91
2018-10-07T17:34:30.516Z,95490.69
2018-10-07T17:36:58.917Z,95494.11
2018-10-07T17:39:27.349Z,95497.25
2018-10-07T17:41:55.737Z,95493.14
2018-10-07T17:44:24.211Z,95496.73
2018-10-07T17:46:52.586Z,95496.39
2018-10-07T17:49:21.041Z,95498.22
2018-10-07T17:51:49.429Z,95506.59
2018-10-07T17:54:17.827Z,95504.62
2018-10-07T17:56:46.418Z,95512.19
2018-10-07T17:59:14.842Z,95512.98
2018-10-07T18:01:43.300Z,95519.55
2018-10-07T18:04:11.705Z,95521.51
2018-10-07T18:06:40.125Z,95521.50
2018-10-07T18:09:09.281Z,95529.20
2018-10-07T18:11:37.665Z,95524.91
2018-10-07T18:14:06.265Z,95531.77
2018-10-07T18:16:34.814Z,95526.81
2018-10-07T18:19:03.682Z,95532.41
2018-10-07T18:21:32.166Z,95536.48
2018-10-07T18:24:00.574Z,95539.27
2018-10-07T18:26:29.006Z,95531.52
2018-10-07T18:28:57.410Z,95531.34
2018-10-07T18:31:25.983Z,95536.09
2018-10-07T18:33:54.374Z,95540.98
2018-10-07T18:36:22.808Z,95548.49
2018-10-07T18:38:51.833Z,95552.06
2018-10-07T18:41:20.271Z,95551.88
2018-10-07T18:43:48.674Z,95556.47
2018-10-07T18:46:17.141Z,95558.08
2018-10-07T18:48:45.563Z,95561.86
2018-10-07T18:51:13.998Z,95560.84
2018-10-07T18:53:43.281Z,95565.75
2018-10-07T18:56:11.691Z,95563.95
2018-10-07T18:58:40.126Z,95562.44
2018-10-07T19:01:08.558Z,95566.55
2018-10-07T19:03:37.014Z,95571.78
2018-10-07T19:06:05.419Z,95571.89
2018-10-07T19:08:33.871Z,95568.91
2018-10-07T19:11:02.763Z,95580.01
2018-10-07T19:13:31.195Z,95580.95
2018-10-07T19:15:59.638Z,95575.50
2018-10-07T19:18:28.256Z,95587.91
2018-10-07T19:20:56.774Z,95588.25
2018-10-07T19:23:25.427Z,95580.49
2018-10-07T19:25:53.880Z,95593.28
2018-10-07T19:28:22.325Z,95594.20
2018-10-07T19:30:50.741Z,95589.56
2018-10-07T19:33:19.182Z,95594.78
2018-10-07T19:35:47.594Z,95590.50
2018-10-07T19:38:16.079Z,95591.94
2018-10-07T19:40:44.474Z,95592.92
2018-10-07T19:43:12.884Z,95585.30
2018-10-07T19:45:41.459Z,95585.94
2018-10-07T19:48:09.966Z,95587.19
2018-10-07T19:50:38.511Z,95587.64
2018-10-07T19:53:07.057Z,95585.53
2018-10-07T19:55:35.516Z,95591.47
2018-10-07T19:58:04.923Z,95592.17
2018-10-07T20:00:33.348Z,95586.80
2018-10-07T20:03:01.734Z,95593.56
2018-10-07T20:05:30.305Z,95599.91
2018-10-07T20:07:58.719Z,95610.77
2018-10-07T20:10:27.170Z,95606.20
2018-10-07T20:12:55.909Z,95613.81
2018-10-07T20:15:24.325Z,95610.36
2018-10-07T20:17:52.777Z,95613.31
2018-10-07T20:20:21.718Z,95610.13
2018-10-07T20:22:50.615Z,95610.72
2018-10-07T20:25:19.025Z,95614.62
2018-10-07T20:27:48.857Z,95611.38
2018-10-07T20:30:17.291Z,95615.77
2018-10-07T20:32:45.686Z,95621.20
2018-10-07T20:35:14.123Z,95621.03
2018-10-07T20:37:42.593Z,95628.73
2018-10-07T20:40:11.043Z,95641.63
2018-10-07T20:42:39.461Z,95635.64
2018-10-07T20:45:07.889Z,95642.94
2018-10-07T20:47:36.937Z,95641.11
2018-10-07T20:50:06.274Z,95643.58
2018-10-07T20:52:34.785Z,95647.02
2018-10-07T20:55:04.255Z,95641.30
2018-10-07T20:57:34.557Z,95650.00
2018-10-07T21:00:04.355Z,95648.81
2018-10-07T21:02:33.606Z,95645.05
2018-10-07T21:05:02.098Z,95643.92
2018-10-07T21:07:30.570Z,95641.27
2018-10-07T21:09:59.635Z,95637.85
2018-10-07T21:12:28.081Z,95635.67
2018-10-07T21:14:56.482Z,95637.43
2018-10-07T21:17:24.945Z,95644.09
2018-10-07T21:19:53.372Z,95636.80
2018-10-07T21:22:21.870Z,95647.22
2018-10-07T21:24:50.302Z,95644.09
2018-10-07T21:27:18.794Z,95654.05
2018-10-07T21:29:47.259Z,95654.50
2018-10-07T21:32:15.669Z,95657.69
2018-10-07T21:34:44.116Z,95657.94
2018-10-07T21:37:12.520Z,95666.11
2018-10-07T21:39:40.976Z,95671.98
2018-10-07T21:42:09.373Z,95668.53
2018-10-07T21:44:38.550Z,95671.78
2018-10-07T21:47:06.981Z,95673.22
2018-10-07T21:49:35.489Z,95675.12
2018-10-07T21:52:03.854Z,95669.52
2018-10-07T21:54:32.298Z,95668.23
2018-10-07T21:57:00.716Z,95667.36
2018-10-07T21:59:29.154Z,95675.12
2018-10-07T22:01:57.563Z,95670.99
2018-10-07T22:04:25.997Z,95673.13
2018-10-07T22:06:54.456Z,95669.69
2018-10-07T22:09:22.950Z,95666.91
2018-10-07T22:11:51.363Z,95665.91
2018-10-07T22:14:19.800Z,95664.60
2018-10-07T22:16:48.237Z,95659.52
2018-10-07T22:19:16.684Z,95667.27
2018-10-07T22:21:45.078Z,95660.97
2018-10-07T22:24:13.550Z,95670.40
2018-10-07T22:26:41.986Z,95684.72
2018-10-07T22:29:10.438Z,95682.26
2018-10-07T22:31:38.911Z,95681.23
2018-10-07T22:34:07.377Z,95676.55
2018-10-07T22:36:35.823Z,95678.97
2018-10-07T22:39:05.179Z,95686.42
2018-10-07T22:41:33.610Z,95687.53
2018-10-07T22:44:02.023Z,95695.21
2018-10-07T22:46:30.490Z,95683.56
2018-10-07T22:48:58.889Z,95694.78
2018-10-07T22:51:27.374Z,95696.80
2018-10-07T22:53:55.778Z,95691.98
2018-10-07T22:56:24.293Z,95693.09
2018-10-07T22:58:52.693Z,95697.02
2018-10-07T23:01:21.150Z,95691.84
2018-10-07T23:03:49.537Z,95694.81
2018-10-07T23:06:17.970Z,95689.63
2018-10-07T23:08:46.368Z,95688.59
2018-10-07T23:11:14.822Z,95689.33
2018-10-07T23:13:43.214Z,95683.06
2018-10-07T23:16:11.705Z,95690.95
2018-10-07T23:18:40.142Z,95684.62
2018-10-07T23:21:08.570Z,95679.34
2018-10-07T23:23:36.998Z,95683.21
2018-10-07T23:26:05.422Z,95685.10
2018-10-07T23:28:33.850Z,95681.55
2018-10-07T23:31:02.978Z,95691.02
2018-10-07T23:33:31.413Z,95695.89
2018-10-07T23:35:59.826Z,95687.69
2018-10-07T23:38:28.253Z,95698.42
2018-10-07T23:40:57.717Z,95691.83
2018-10-07T23:43:26.149Z,95693.75
2018-10-07T23:45:54.769Z,95694.55
2018-10-07T23:48:23.215Z,95699.14
2018-10-07T23:50:51.642Z,95696.06
2018-10-07T23:53:20.069Z,95687.55
2018-10-07T23:55:48.475Z,95687.23
2018-10-07T23:58:16.930Z,95689.73
